Time;durP1;ratioP1;P1;durP2;ratioP2;P2;SDS_P1;SDS_P2;PMS_P1;PMS_P2;Temp;Humidity;BMP_temperature;BMP_pressure;BME280_temperature;BME280_humidity;BME280_pressure;Samples;Min_cycle;Max_cycle;Signal;HPM_P1;HPM_P2
2022/07/11 00:00:15;;;;;;;12.63;7.93;;;;;;;16.34;90.07;100592.75;10447738;28;20045;-76
2022/07/11 00:05:17;;;;;;;11.85;8.75;;;;;;;16.28;90.27;100605.91;10485988;28;20036;-76
2022/07/11 00:10:19;;;;;;;11.63;8.45;;;;;;;16.20;90.69;100619.75;10486074;28;20037;-76
2022/07/11 00:15:21;;;;;;;11.43;8.05;;;;;;;16.17;91.15;100628.69;10458223;28;20033;-76
2022/07/11 00:20:24;;;;;;;11.68;8.10;;;;;;;16.17;91.13;100634.22;10444463;28;20041;-75
2022/07/11 00:25:26;;;;;;;11.18;8.32;;;;;;;16.10;91.67;100623.59;10432959;28;20072;-75
2022/07/11 00:30:28;;;;;;;12.45;7.82;;;;;;;16.02;92.15;100626.31;10477261;28;20439;-75
2022/07/11 00:35:31;;;;;;;10.50;7.43;;;;;;;15.97;92.16;100625.34;10464859;28;20041;-75
2022/07/11 00:40:33;;;;;;;9.85;6.95;;;;;;;15.96;92.54;100618.13;10467091;28;20512;-75
2022/07/11 00:45:35;;;;;;;10.57;6.75;;;;;;;15.93;92.34;100612.44;10485591;28;20661;-76
2022/07/11 00:50:37;;;;;;;12.15;6.93;;;;;;;15.90;92.51;100607.53;10493278;28;20033;-76
2022/07/11 00:55:45;;;;;;;11.15;7.70;;;;;;;15.88;92.71;100612.56;10489643;28;20053;-75
2022/07/11 01:00:49;;;;;;;12.73;8.10;;;;;;;15.83;93.25;100613.53;10418507;28;20060;-76
2022/07/11 01:05:51;;;;;;;8.32;6.40;;;;;;;15.78;93.08;100608.09;10433755;28;20145;-75
2022/07/11 01:10:53;;;;;;;9.43;6.85;;;;;;;15.75;93.25;100621.75;10481412;28;20048;-75
2022/07/11 01:16:10;;;;;;;8.45;6.97;;;;;;;15.72;93.32;100619.63;10491541;28;20057;-75
2022/07/11 01:21:24;;;;;;;;;;;;;;;15.70;93.87;100633.78;10491506;28;20060;-75
2022/07/11 01:26:27;;;;;;;9.40;7.45;;;;;;;15.68;94.15;100644.34;10489711;28;19928;-75
2022/07/11 01:31:29;;;;;;;8.80;7.45;;;;;;;15.66;93.82;100658.50;10491259;28;20515;-75
2022/07/11 01:36:32;;;;;;;9.32;7.57;;;;;;;15.63;94.35;100669.38;10473401;28;20033;-75
2022/07/11 01:41:36;;;;;;;10.80;7.72;;;;;;;15.63;94.23;100655.56;10457390;28;20072;-74
2022/07/11 01:46:38;;;;;;;9.75;7.85;;;;;;;15.60;94.62;100650.63;10490623;28;20041;-75
2022/07/11 01:51:42;;;;;;;11.10;7.68;;;;;;;15.65;94.32;100647.75;10489659;28;20044;-75
2022/07/11 01:56:49;;;;;;;10.95;7.68;;;;;;;15.73;94.46;100643.41;10490427;28;20518;-75
2022/07/11 02:01:52;;;;;;;10.45;7.65;;;;;;;15.84;94.39;100637.31;10459789;28;20037;-75
2022/07/11 02:06:55;;;;;;;13.30;7.60;;;;;;;16.02;94.09;100629.91;10463582;28;20041;-76
2022/07/11 02:11:57;;;;;;;11.10;8.07;;;;;;;16.17;94.39;100623.16;10487572;28;20033;-75
2022/07/11 02:16:59;;;;;;;12.45;8.40;;;;;;;16.33;93.69;100623.53;10466804;28;20041;-74
2022/07/11 02:22:05;;;;;;;12.25;8.30;;;;;;;16.57;92.79;100626.72;10480437;28;20072;-74
2022/07/11 02:27:08;;;;;;;12.57;9.20;;;;;;;16.59;92.12;100613.34;10473549;28;20052;-74
2022/07/11 02:32:11;;;;;;;13.20;9.15;;;;;;;16.62;91.44;100609.09;10457368;28;20389;-74
2022/07/11 02:37:13;;;;;;;13.27;8.45;;;;;;;16.68;90.76;100602.31;10486826;28;20068;-74
2022/07/11 02:42:15;;;;;;;11.60;9.00;;;;;;;16.75;89.80;100602.66;10489074;28;20044;-74
2022/07/11 02:47:18;;;;;;;13.65;9.13;;;;;;;16.88;89.26;100616.38;10487015;28;20052;-74
2022/07/11 02:52:21;;;;;;;13.68;9.02;;;;;;;16.95;88.67;100621.44;10488537;28;20036;-74
2022/07/11 02:57:24;;;;;;;20.17;9.77;;;;;;;17.16;87.84;100632.69;10477796;28;20048;-74
2022/07/11 03:02:26;;;;;;;12.70;9.88;;;;;;;17.53;87.12;100638.72;10471229;28;20419;-73
2022/07/11 03:07:29;;;;;;;14.95;9.93;;;;;;;17.87;85.55;100627.59;10486532;28;20052;-73
2022/07/11 03:12:31;;;;;;;15.63;10.27;;;;;;;18.22;84.24;100636.66;10488095;28;20048;-73
2022/07/11 03:17:37;;;;;;;14.25;10.20;;;;;;;18.73;81.96;100631.19;10453071;28;20040;-73
2022/07/11 03:22:39;;;;;;;14.88;9.70;;;;;;;19.30;79.26;100642.59;10445928;28;20053;-74
2022/07/11 03:27:42;;;;;;;13.65;9.07;;;;;;;19.57;78.16;100642.03;10451461;28;20411;-74
2022/07/11 03:32:44;;;;;;;17.05;9.57;;;;;;;19.84;76.08;100650.97;10486273;28;20045;-74
2022/07/11 03:37:46;;;;;;;15.15;9.80;;;;;;;20.15;75.03;100654.06;10486551;28;20049;-75
2022/07/11 03:42:48;;;;;;;12.98;9.93;;;;;;;20.33;74.13;100662.22;10486808;28;20059;-75
2022/07/11 03:47:51;;;;;;;12.45;9.15;;;;;;;20.56;73.78;100665.41;10485185;28;20388;-75
2022/07/11 03:52:53;;;;;;;15.10;9.38;;;;;;;20.73;72.52;100663.19;10485478;28;20041;-75
2022/07/11 03:57:56;;;;;;;15.05;9.32;;;;;;;20.96;71.80;100668.28;10482745;28;20571;-74
2022/07/11 04:02:58;;;;;;;18.08;10.90;;;;;;;21.04;71.04;100675.72;10468572;28;20048;-75
2022/07/11 04:08:00;;;;;;;15.00;9.88;;;;;;;20.78;71.49;100674.13;10467766;28;20522;-75
2022/07/11 04:13:03;;;;;;;13.48;9.80;;;;;;;20.63;72.19;100677.59;10485863;28;20139;-74
2022/07/11 04:18:05;;;;;;;13.63;8.23;;;;;;;20.52;72.80;100681.22;10483214;28;20048;-74
2022/07/11 04:23:07;;;;;;;14.60;10.38;;;;;;;20.61;72.75;100685.50;10473457;28;20044;-75
2022/07/11 04:28:09;;;;;;;13.02;9.70;;;;;;;20.91;72.66;100682.47;10478381;28;20044;-75
2022/07/11 04:33:12;;;;;;;14.07;9.77;;;;;;;21.19;71.27;100688.97;10469521;28;20419;-75
2022/07/11 04:38:16;;;;;;;14.95;9.98;;;;;;;21.53;69.37;100690.44;10474158;28;20052;-75
2022/07/11 04:43:19;;;;;;;13.18;9.45;;;;;;;21.94;68.40;100703.19;10492901;28;20056;-74
2022/07/11 04:48:21;;;;;;;13.63;10.18;;;;;;;22.08;68.02;100700.00;10491275;28;20052;-74
2022/07/11 04:53:24;;;;;;;13.20;9.02;;;;;;;22.09;67.08;100689.63;10447181;28;20045;-75
2022/07/11 04:58:26;;;;;;;14.90;9.50;;;;;;;22.32;66.35;100696.25;10452859;28;20397;-74
2022/07/11 05:03:29;;;;;;;13.63;9.45;;;;;;;22.61;65.79;100699.78;10451481;28;20504;-74
2022/07/11 05:08:36;;;;;;;14.27;8.15;;;;;;;22.85;64.64;100697.63;10480638;28;20515;-74
2022/07/11 05:13:38;;;;;;;12.60;8.05;;;;;;;23.26;62.98;100694.59;10475040;28;20076;-75
2022/07/11 05:18:40;;;;;;;9.95;7.30;;;;;;;23.30;62.65;100689.88;10461979;28;20037;-75
2022/07/11 05:23:42;;;;;;;12.02;7.88;;;;;;;23.06;63.57;100688.91;10481474;28;20057;-75
2022/07/11 05:28:44;;;;;;;9.18;6.35;;;;;;;23.10;63.71;100709.44;10488344;28;20041;-75
2022/07/11 05:33:47;;;;;;;11.23;6.72;;;;;;;23.36;62.50;100702.41;10474141;28;20049;-75
2022/07/11 05:38:49;;;;;;;7.88;6.45;;;;;;;23.38;62.25;100702.84;10461819;28;20033;-74
2022/07/11 05:43:51;;;;;;;7.28;5.70;;;;;;;23.05;62.32;100704.09;10452368;28;20053;-75
2022/07/11 05:48:53;;;;;;;7.05;5.18;;;;;;;22.78;63.25;100703.03;10480483;28;20042;-75
2022/07/11 05:53:56;;;;;;;12.80;8.02;;;;;;;22.69;63.84;100710.78;10461914;28;20049;-74
2022/07/11 05:58:58;;;;;;;11.77;8.05;;;;;;;22.59;64.56;100716.13;10481637;28;20037;-75
2022/07/11 06:04:00;;;;;;;9.48;7.03;;;;;;;22.66;63.67;100716.28;10448713;28;20057;-75
2022/07/11 06:09:03;;;;;;;8.40;5.57;;;;;;;22.82;64.34;100723.53;10449653;28;20060;-75
2022/07/11 06:14:09;;;;;;;8.52;6.90;;;;;;;23.06;62.28;100721.69;10449179;28;20049;-74
2022/07/11 06:19:11;;;;;;;7.23;6.27;;;;;;;23.21;62.81;100732.06;10455114;28;20401;-74
2022/07/11 06:24:14;;;;;;;10.77;7.32;;;;;;;23.46;62.57;100733.44;10430961;28;20061;-74
2022/07/11 06:29:16;;;;;;;7.70;5.38;;;;;;;23.80;60.93;100730.19;10479532;28;20041;-75
2022/07/11 06:34:19;;;;;;;9.23;4.60;;;;;;;24.24;59.09;100737.06;10468928;28;20511;-74
2022/07/11 06:39:21;;;;;;;5.63;4.60;;;;;;;24.52;56.89;100731.22;10413902;28;20041;-75
2022/07/11 06:44:23;;;;;;;6.07;4.93;;;;;;;24.73;56.29;100732.78;10434248;28;20041;-75
2022/07/11 06:49:25;;;;;;;6.68;5.10;;;;;;;24.96;56.32;100733.56;10449602;28;20048;-75
2022/07/11 06:54:28;;;;;;;4.47;3.58;;;;;;;25.46;53.33;100735.16;10429566;28;20045;-75
2022/07/11 06:59:30;;;;;;;6.13;4.50;;;;;;;25.78;51.85;100743.25;10456117;28;20040;-75
2022/07/11 07:04:32;;;;;;;5.13;4.22;;;;;;;25.64;51.85;100745.84;10488565;28;20062;-75
2022/07/11 07:09:34;;;;;;;7.20;4.30;;;;;;;25.51;52.05;100742.44;10456988;28;20049;-75
2022/07/11 07:14:37;;;;;;;5.30;4.40;;;;;;;25.52;51.72;100736.47;10436089;28;20041;-75
2022/07/11 07:19:39;;;;;;;6.07;4.03;;;;;;;25.63;52.65;100736.59;10452479;28;20057;-74
2022/07/11 07:24:45;;;;;;;4.30;3.70;;;;;;;25.53;51.04;100740.91;10449715;28;20042;-74
2022/07/11 07:29:48;;;;;;;5.63;4.38;;;;;;;25.06;52.59;100743.38;10444561;28;20045;-74
2022/07/11 07:34:50;;;;;;;7.63;4.75;;;;;;;24.40;54.48;100744.63;10445561;28;20460;-75
2022/07/11 07:39:52;;;;;;;5.00;4.15;;;;;;;24.06;53.94;100745.16;10470261;28;20446;-75
2022/07/11 07:44:54;;;;;;;7.40;4.15;;;;;;;23.82;55.67;100739.03;10486662;28;20056;-75
2022/07/11 07:49:57;;;;;;;6.07;4.55;;;;;;;23.50;56.19;100741.94;10486048;28;20071;-74
2022/07/11 07:54:59;;;;;;;5.75;5.20;;;;;;;23.37;56.34;100751.63;10455384;28;20045;-75
2022/07/11 08:05:24;;;;;;;5.80;4.85;;;;;;;22.84;57.64;100753.94;10444374;28;20045;-75
2022/07/11 08:10:27;;;;;;;5.20;4.70;;;;;;;22.66;57.90;100764.66;10481223;28;20431;-74
2022/07/11 08:15:29;;;;;;;5.30;4.80;;;;;;;22.51;57.94;100763.47;10454625;28;20037;-74
2022/07/11 08:20:32;;;;;;;5.85;4.80;;;;;;;22.45;59.49;100764.09;10444592;28;20528;-75
2022/07/11 08:25:35;;;;;;;5.20;4.40;;;;;;;22.22;59.86;100761.09;10445713;28;20492;-75
2022/07/11 08:30:37;;;;;;;5.57;4.85;;;;;;;22.09;59.83;100753.91;10480086;28;20559;-74
2022/07/11 08:35:39;;;;;;;4.68;4.18;;;;;;;21.98;60.02;100759.97;10483959;28;20044;-74
2022/07/11 08:40:43;;;;;;;4.65;4.15;;;;;;;22.01;59.41;100760.41;10485557;28;20048;-74
2022/07/11 08:45:45;;;;;;;6.38;4.20;;;;;;;22.05;60.27;100766.97;10483976;28;20053;-75
2022/07/11 08:50:49;;;;;;;6.03;4.47;;;;;;;22.13;59.61;100764.00;10460724;28;20046;-74
2022/07/11 08:55:52;;;;;;;6.38;4.45;;;;;;;22.12;59.51;100781.16;10416600;28;20053;-74
2022/07/11 09:00:54;;;;;;;4.50;3.90;;;;;;;22.01;59.85;100789.19;10426253;28;20045;-74
2022/07/11 09:06:00;;;;;;;5.30;4.65;;;;;;;21.83;59.95;100787.84;10435936;28;20057;-74
2022/07/11 09:11:03;;;;;;;3.97;3.58;;;;;;;21.66;60.71;100778.56;10466554;28;20049;-74
2022/07/11 09:16:07;;;;;;;5.53;3.28;;;;;;;21.68;60.73;100787.41;10516723;28;20541;-75
2022/07/11 09:26:36;;;;;;;4.35;3.95;;;;;;;21.57;62.46;100785.47;10460756;28;20043;-74
2022/07/11 09:31:41;;;;;;;5.13;4.10;;;;;;;21.52;63.87;100796.84;10485264;28;20044;-75
2022/07/11 09:36:50;;;;;;;8.05;4.95;;;;;;;21.19;65.30;100803.41;10468978;28;20037;-75
2022/07/11 09:41:53;;;;;;;5.13;4.47;;;;;;;20.85;67.49;100826.16;10479759;28;20047;-74
2022/07/11 09:46:56;;;;;;;6.47;5.07;;;;;;;20.47;68.93;100816.03;10488107;28;20500;-74
2022/07/11 09:52:17;;;;;;;7.32;5.40;;;;;;;20.14;70.52;100822.41;10458949;28;20425;-74
2022/07/11 09:57:33;;;;;;;6.97;4.90;;;;;;;19.87;72.51;100822.94;10448415;28;20501;-74
2022/07/11 10:02:36;;;;;;;5.97;5.30;;;;;;;19.77;74.41;100831.69;10468695;28;20048;-74
2022/07/11 10:07:38;;;;;;;3.22;2.53;;;;;;;19.63;75.34;100834.75;10480253;28;20078;-75
2022/07/11 10:12:41;;;;;;;3.88;3.50;;;;;;;19.43;73.65;100847.41;10467578;28;20049;-75
2022/07/11 10:18:02;;;;;;;3.80;3.35;;;;;;;19.30;73.13;100836.53;10435211;28;20394;-77
2022/07/11 10:23:41;;;;;;;5.13;3.92;;;;;;;19.20;74.11;100832.16;10457544;28;20503;-80
2022/07/11 10:28:53;;;;;;;5.22;4.72;;;;;;;19.14;76.72;100844.63;10482931;28;20036;-77
2022/07/11 10:34:06;;;;;;;4.80;3.92;;;;;;;18.90;77.96;100834.06;10462113;28;20065;-75
2022/07/11 10:39:19;;;;;;;4.70;4.07;;;;;;;18.81;79.28;100830.53;10483319;28;20450;-77
2022/07/11 10:44:22;;;;;;;5.10;4.50;;;;;;;18.83;79.67;100829.03;10486800;28;20041;-77
2022/07/11 10:49:31;;;;;;;7.13;5.22;;;;;;;18.85;80.86;100831.47;10452476;28;20036;-78
2022/07/11 10:54:48;;;;;;;5.53;4.97;;;;;;;18.84;81.10;100836.22;10460259;28;20065;-79
2022/07/11 10:59:59;;;;;;;6.50;5.75;;;;;;;18.78;81.21;100833.97;10476138;28;20436;-79
2022/07/11 11:05:02;;;;;;;5.38;3.28;;;;;;;18.84;82.31;100844.56;10455854;28;20052;-85
2022/07/11 11:10:30;;;;;;;7.10;6.20;;;;;;;18.82;83.11;100838.53;10468214;28;20393;-78
2022/07/11 11:15:42;;;;;;;5.10;3.75;;;;;;;18.80;83.87;100856.69;10463117;28;20048;-76
2022/07/11 11:20:44;;;;;;;8.02;7.22;;;;;;;18.73;84.23;100848.84;10460604;28;20052;-76
2022/07/11 11:25:50;;;;;;;9.50;6.85;;;;;;;18.58;84.16;100861.28;10452574;28;20061;-74
2022/07/11 11:30:54;;;;;;;9.63;6.03;;;;;;;18.41;84.75;100866.06;10464347;28;20041;-75
2022/07/11 11:36:05;;;;;;;9.35;5.88;;;;;;;18.33;85.08;100865.72;10469525;28;20044;-75
2022/07/11 11:41:08;;;;;;;11.82;8.27;;;;;;;18.31;85.42;100872.75;10469146;28;20045;-78
2022/07/11 11:46:12;;;;;;;14.05;9.40;;;;;;;18.10;85.77;100872.59;10477707;28;20048;-81
2022/07/11 11:51:18;;;;;;;10.52;7.00;;;;;;;17.94;86.14;100883.34;10473930;28;20041;-75
2022/07/11 11:56:33;;;;;;;11.38;7.88;;;;;;;17.88;86.85;100886.63;10453893;28;20052;-75
2022/07/11 12:01:37;;;;;;;9.52;7.90;;;;;;;17.68;87.47;100904.69;10454667;28;20412;-76
2022/07/11 12:06:42;;;;;;;8.70;6.60;;;;;;;17.49;87.18;100905.72;10477056;28;20056;-75
2022/07/11 12:12:43;;;;;;;6.82;5.03;;;;;;;17.33;87.18;100909.25;10481029;28;20041;-75
2022/07/11 12:17:15;;;;;;;8.77;5.45;;;;;;;17.28;87.72;100923.28;10481178;28;20068;-74
2022/07/11 12:22:18;;;;;;;3.22;2.33;;;;;;;17.17;87.86;100929.09;10477874;28;20048;-74
2022/07/11 12:27:23;;;;;;;4.38;3.28;;;;;;;17.04;87.77;100940.28;10461702;28;20044;-76
2022/07/11 12:32:25;;;;;;;4.95;3.97;;;;;;;17.00;87.41;100928.16;10455622;28;20037;-76
2022/07/11 12:37:37;;;;;;;5.45;4.43;;;;;;;16.94;87.97;100935.81;10476159;28;20032;-76
2022/07/11 12:42:39;;;;;;;9.88;4.72;;;;;;;16.94;88.33;100935.81;10479147;28;20159;-76
2022/07/11 12:47:46;;;;;;;6.85;3.03;;;;;;;16.84;88.46;100927.78;10485782;28;20053;-75
2022/07/11 12:52:54;;;;;;;6.10;4.07;;;;;;;16.69;88.97;100933.69;10463924;28;20065;-75
2022/07/11 12:58:09;;;;;;;7.20;4.18;;;;;;;16.56;88.97;100940.91;10477523;28;20045;-75
2022/07/11 13:03:11;;;;;;;4.22;2.47;;;;;;;16.34;88.55;100932.56;10483454;28;20041;-74
2022/07/11 13:13:47;;;;;;;3.20;2.55;;;;;;;16.09;87.69;100915.38;10486643;28;20041;-76
2022/07/11 13:18:50;;;;;;;4.68;3.15;;;;;;;16.15;88.09;100902.28;10450295;28;20048;-75
2022/07/11 13:23:52;;;;;;;3.75;2.60;;;;;;;16.16;88.82;100885.34;10492380;28;20049;-76
2022/07/11 13:28:54;;;;;;;4.30;3.00;;;;;;;16.19;88.99;100881.94;10486931;28;20048;-77
2022/07/11 13:33:57;;;;;;;2.90;2.13;;;;;;;16.23;88.73;100866.34;10492402;28;20048;-77
2022/07/11 13:38:59;;;;;;;4.03;3.03;;;;;;;16.30;88.57;100849.28;10491182;28;20040;-77
2022/07/11 13:44:02;;;;;;;4.63;2.42;;;;;;;16.39;88.88;100830.78;10489311;28;20530;-77
2022/07/11 13:49:04;;;;;;;3.92;3.20;;;;;;;16.45;88.97;100848.91;10488954;28;20558;-76
2022/07/11 13:54:07;;;;;;;1.42;1.33;;;;;;;16.54;89.47;100844.25;10489648;28;20060;-77
2022/07/11 13:59:10;;;;;;;4.10;2.15;;;;;;;16.56;89.96;100797.66;10491328;28;20041;-76
2022/07/11 14:04:12;;;;;;;5.25;3.22;;;;;;;16.51;90.47;100802.53;10469033;28;20049;-77
2022/07/11 14:09:15;;;;;;;5.50;4.32;;;;;;;16.50;91.03;100829.41;10487903;28;20056;-76
2022/07/11 14:14:17;;;;;;;3.28;2.92;;;;;;;16.46;91.26;100827.56;10491096;28;20045;-76
2022/07/11 14:19:20;;;;;;;1.75;1.50;;;;;;;16.38;91.17;100820.84;10463177;28;20044;-76
2022/07/11 14:24:22;;;;;;;5.93;2.45;;;;;;;16.35;90.54;100827.00;10471312;28;20040;-74
2022/07/11 14:29:26;;;;;;;1.55;1.30;;;;;;;16.28;90.31;100829.38;10477060;28;20044;-74
2022/07/11 14:34:30;;;;;;;3.75;2.60;;;;;;;16.23;89.60;100835.88;10489387;28;20049;-75
2022/07/11 14:39:33;;;;;;;4.10;1.17;;;;;;;16.19;89.56;100828.53;10466212;28;20037;-74
2022/07/11 14:44:35;;;;;;;2.17;1.55;;;;;;;16.18;89.66;100819.41;10482517;28;20059;-76
2022/07/11 14:49:38;;;;;;;3.85;2.63;;;;;;;16.15;89.91;100824.75;10471171;28;20041;-74
2022/07/11 14:54:41;;;;;;;4.20;2.60;;;;;;;16.05;90.02;100830.53;10478855;28;20525;-76
2022/07/11 14:59:43;;;;;;;2.67;1.65;;;;;;;15.96;90.06;100824.91;10459024;28;20055;-75
2022/07/11 15:04:46;;;;;;;2.17;1.70;;;;;;;15.94;90.58;100835.47;10462159;28;20041;-75
2022/07/11 15:15:09;;;;;;;1.73;1.60;;;;;;;15.80;91.28;100832.75;10447191;28;20056;-74
2022/07/11 15:20:12;;;;;;;2.45;2.00;;;;;;;15.77;91.19;100830.59;10444050;28;20037;-74
2022/07/11 15:25:15;;;;;;;4.18;2.05;;;;;;;15.75;91.57;100821.78;10469513;28;20045;-74
2022/07/11 15:30:17;;;;;;;1.70;1.60;;;;;;;15.72;91.83;100840.97;10485975;28;20530;-74
2022/07/11 15:35:20;;;;;;;2.78;1.80;;;;;;;15.76;91.85;100841.97;10487419;28;20051;-73
2022/07/11 15:40:23;;;;;;;2.97;1.67;;;;;;;15.72;91.79;100847.31;10486460;28;20432;-75
2022/07/11 15:45:25;;;;;;;1.67;1.52;;;;;;;15.68;92.09;100866.50;10467412;28;20064;-74
2022/07/11 15:50:27;;;;;;;2.13;1.92;;;;;;;15.65;92.29;100844.16;10486315;28;20041;-75
2022/07/11 15:55:30;;;;;;;2.33;1.55;;;;;;;15.63;92.33;100840.91;10486780;28;20044;-77
2022/07/11 16:00:33;;;;;;;3.80;2.45;;;;;;;15.63;92.72;100841.72;10483789;28;20041;-77
2022/07/11 16:05:36;;;;;;;4.53;2.83;;;;;;;15.70;92.87;100802.53;10485826;28;20048;-74
2022/07/11 16:10:39;;;;;;;2.08;1.55;;;;;;;15.75;93.18;100798.84;10450597;28;20052;-75
2022/07/11 16:15:45;;;;;;;5.18;2.20;;;;;;;15.75;93.22;100794.13;10478390;28;20037;-76
2022/07/11 16:20:48;;;;;;;2.65;2.15;;;;;;;15.78;93.11;100787.13;10476269;28;20044;-73
2022/07/11 16:25:50;;;;;;;5.20;2.55;;;;;;;15.77;93.38;100769.72;10439097;28;20459;-76
2022/07/11 16:30:53;;;;;;;1.75;1.58;;;;;;;15.76;93.20;100772.81;10461151;28;20420;-75
2022/07/11 16:35:55;;;;;;;2.63;1.67;;;;;;;15.75;92.92;100774.75;10483834;28;20508;-73
2022/07/11 16:46:18;;;;;;;7.75;2.90;;;;;;;15.78;92.99;100752.00;10463190;28;20064;-73
2022/07/11 16:51:21;;;;;;;0.93;0.73;;;;;;;15.78;92.71;100727.09;10456571;28;20049;-76
2022/07/11 16:56:25;;;;;;;4.57;2.28;;;;;;;15.80;92.49;100751.69;10479789;28;20038;-74
2022/07/11 17:01:28;;;;;;;2.97;1.90;;;;;;;15.83;92.51;100757.41;10466640;28;20045;-75
2022/07/11 17:06:31;;;;;;;2.28;1.70;;;;;;;15.85;92.31;100743.25;10451345;28;20566;-76
2022/07/11 17:11:34;;;;;;;2.22;1.67;;;;;;;15.88;92.13;100740.69;10467090;28;20033;-76
2022/07/11 17:16:37;;;;;;;3.75;1.70;;;;;;;15.93;91.35;100735.00;10478968;28;20060;-74
2022/07/11 17:21:39;;;;;;;0.57;0.57;;;;;;;16.01;90.95;100716.03;10433932;28;20069;-75
2022/07/11 17:26:41;;;;;;;2.42;2.05;;;;;;;16.04;90.95;100705.13;10480983;28;20047;-75
2022/07/11 17:31:46;;;;;;;2.53;1.65;;;;;;;16.04;90.94;100707.09;10477885;28;20041;-75
2022/07/11 17:36:48;;;;;;;2.67;2.03;;;;;;;16.03;90.95;100697.97;10478417;28;20072;-75
2022/07/11 17:41:51;;;;;;;1.13;1.02;;;;;;;15.98;91.36;100682.31;10449903;28;20050;-76
2022/07/11 17:46:53;;;;;;;2.97;2.38;;;;;;;15.98;90.71;100674.03;10468756;28;20057;-75
2022/07/11 17:51:55;;;;;;;3.92;1.35;;;;;;;15.96;90.95;100662.41;10473539;28;20048;-76
2022/07/11 17:56:58;;;;;;;2.85;2.60;;;;;;;15.96;90.84;100659.66;10459518;28;20030;-76
2022/07/11 18:02:00;;;;;;;3.72;1.88;;;;;;;16.00;90.74;100672.88;10456036;28;20064;-77
2022/07/11 18:07:03;;;;;;;0.65;0.65;;;;;;;16.00;90.58;100686.72;10478053;28;20052;-76
2022/07/11 18:12:06;;;;;;;2.50;1.33;;;;;;;16.00;90.70;100675.66;10463690;28;20045;-76
2022/07/11 18:17:08;;;;;;;2.38;1.67;;;;;;;16.01;90.83;100669.78;10465608;28;20057;-76
2022/07/11 18:22:10;;;;;;;2.95;1.90;;;;;;;16.01;90.98;100663.44;10482114;28;20033;-74
2022/07/11 18:27:13;;;;;;;2.38;1.80;;;;;;;15.99;91.40;100669.31;10464609;28;20503;-72
2022/07/11 18:32:16;;;;;;;0.68;0.50;;;;;;;15.94;91.55;100689.59;10488672;28;20037;-77
2022/07/11 18:37:21;;;;;;;1.67;1.40;;;;;;;15.89;92.24;100684.19;10452471;28;20053;-77
2022/07/11 18:42:24;;;;;;;1.90;1.80;;;;;;;15.85;92.82;100688.75;10465259;28;20481;-74
2022/07/11 18:47:26;;;;;;;3.90;2.13;;;;;;;15.80;93.14;100713.78;10476965;28;20065;-76
2022/07/11 18:52:28;;;;;;;3.30;2.65;;;;;;;15.78;93.38;100735.38;10481826;28;20041;-75
2022/07/11 18:57:32;;;;;;;5.88;3.00;;;;;;;15.75;93.88;100736.03;10487616;28;20045;-73
2022/07/11 19:02:35;;;;;;;3.28;2.78;;;;;;;15.70;95.50;100747.22;10477128;28;20049;-74
2022/07/11 19:07:37;;;;;;;5.20;3.10;;;;;;;15.68;95.77;100743.94;10439605;28;20052;-74
2022/07/11 19:12:39;;;;;;;3.17;1.88;;;;;;;15.67;96.39;100736.78;10481450;28;20049;-74
2022/07/11 19:17:42;;;;;;;5.00;2.90;;;;;;;15.67;97.34;100745.91;10471195;28;20606;-77
2022/07/11 19:22:44;;;;;;;5.43;2.72;;;;;;;15.66;97.32;100737.91;10459319;28;20041;-73
2022/07/11 19:27:46;;;;;;;4.75;2.40;;;;;;;15.65;98.16;100736.28;10485855;28;20530;-74
2022/07/11 19:32:49;;;;;;;5.03;3.72;;;;;;;15.66;98.53;100743.44;10486052;28;20053;-75
2022/07/11 19:37:51;;;;;;;5.00;3.20;;;;;;;15.65;99.01;100750.09;10479653;28;20056;-79
2022/07/11 19:42:53;;;;;;;2.28;1.05;;;;;;;15.67;99.70;100731.25;10486183;28;20052;-79
2022/07/11 19:47:56;;;;;;;3.05;2.35;;;;;;;15.73;100.00;100729.16;10486345;28;20060;-80
2022/07/11 19:52:58;;;;;;;3.88;2.63;;;;;;;15.71;100.00;100715.66;10482163;28;20033;-78
2022/07/11 19:58:01;;;;;;;2.80;2.25;;;;;;;15.73;100.00;100718.91;10459155;28;20049;-76
2022/07/11 20:03:03;;;;;;;2.92;2.53;;;;;;;15.70;100.00;100727.84;10479823;28;20055;-78
2022/07/11 20:08:05;;;;;;;3.03;2.53;;;;;;;15.70;100.00;100736.16;10485385;28;20045;-78
2022/07/11 20:13:08;;;;;;;2.83;2.17;;;;;;;15.68;100.00;100708.81;10470928;28;20044;-77
2022/07/11 20:18:10;;;;;;;3.17;1.35;;;;;;;15.70;100.00;100711.25;10484336;28;20040;-78
2022/07/11 20:23:13;;;;;;;2.75;2.03;;;;;;;15.72;100.00;100697.91;10479414;28;20049;-76
2022/07/11 20:28:17;;;;;;;5.43;2.72;;;;;;;15.73;100.00;100702.31;10485198;28;20049;-76
2022/07/11 20:33:20;;;;;;;3.10;2.35;;;;;;;15.74;100.00;100730.81;10421759;28;20045;-76
2022/07/11 20:38:22;;;;;;;3.55;3.20;;;;;;;15.72;100.00;100735.84;10446056;28;20484;-74
2022/07/11 20:43:24;;;;;;;6.07;3.45;;;;;;;15.75;100.00;100743.50;10449321;28;20041;-74
2022/07/11 20:48:27;;;;;;;6.05;3.15;;;;;;;15.77;100.00;100725.44;10447709;28;20388;-74
2022/07/11 20:53:29;;;;;;;4.97;3.33;;;;;;;15.79;100.00;100720.41;10481072;28;20037;-74
2022/07/11 20:58:31;;;;;;;5.18;4.07;;;;;;;15.81;100.00;100706.28;10479121;28;20057;-74
2022/07/11 21:03:33;;;;;;;4.25;2.83;;;;;;;15.81;100.00;100720.13;10454935;28;20060;-74
2022/07/11 21:08:36;;;;;;;3.15;1.85;;;;;;;15.81;100.00;100726.47;10457137;28;20048;-81
2022/07/11 21:13:38;;;;;;;6.30;3.72;;;;;;;15.82;100.00;100727.28;10471371;28;20041;-77
2022/07/11 21:18:40;;;;;;;7.05;3.90;;;;;;;15.84;100.00;100723.09;10491781;28;20040;-77
2022/07/11 21:23:43;;;;;;;4.20;3.15;;;;;;;15.89;100.00;100711.88;10462573;28;20040;-77
2022/07/11 21:28:45;;;;;;;2.08;1.80;;;;;;;15.91;100.00;100676.41;10462415;28;20040;-76
2022/07/11 21:33:47;;;;;;;5.55;3.55;;;;;;;15.96;100.00;100654.13;10477383;28;20036;-76
2022/07/11 21:38:49;;;;;;;2.10;1.30;;;;;;;15.99;100.00;100633.31;10472154;28;20051;-76
2022/07/11 21:43:52;;;;;;;5.68;3.58;;;;;;;15.98;100.00;100598.47;10455468;28;20516;-75
2022/07/11 21:48:54;;;;;;;2.83;2.17;;;;;;;15.98;100.00;100579.09;10481990;28;20049;-75
2022/07/11 21:53:56;;;;;;;7.00;2.15;;;;;;;15.96;100.00;100548.94;10470176;28;20049;-76
2022/07/11 21:58:59;;;;;;;2.35;1.25;;;;;;;15.97;100.00;100524.88;10481953;28;20420;-76
2022/07/11 22:04:01;;;;;;;3.72;1.77;;;;;;;15.97;100.00;100520.16;10463044;28;20407;-75
2022/07/11 22:09:03;;;;;;;2.50;2.15;;;;;;;15.97;100.00;100567.22;10467123;28;20526;-78
2022/07/11 22:14:06;;;;;;;0.90;0.88;;;;;;;15.97;100.00;100567.22;10478698;28;20049;-75
2022/07/11 22:19:08;;;;;;;1.48;1.35;;;;;;;16.01;100.00;100544.44;10460032;28;20048;-79
2022/07/11 22:24:11;;;;;;;2.10;1.90;;;;;;;16.00;100.00;100587.91;10483121;28;20041;-74
2022/07/11 22:29:13;;;;;;;1.58;0.85;;;;;;;15.98;100.00;100620.63;10485844;28;20060;-74
2022/07/11 22:34:16;;;;;;;4.43;2.20;;;;;;;15.99;100.00;100658.22;10483912;28;20077;-75
2022/07/11 22:39:18;;;;;;;1.83;1.70;;;;;;;15.98;100.00;100681.50;10481699;28;20033;-74
2022/07/11 22:44:20;;;;;;;4.32;2.70;;;;;;;15.98;100.00;100679.56;10484910;28;20689;-74
2022/07/11 22:49:22;;;;;;;2.35;2.15;;;;;;;16.00;100.00;100675.66;10475494;28;20049;-75
2022/07/11 22:54:25;;;;;;;3.63;2.65;;;;;;;16.03;100.00;100691.63;10488105;28;20044;-75
2022/07/11 22:59:27;;;;;;;3.22;1.90;;;;;;;16.04;100.00;100684.94;10467100;28;20537;-75
2022/07/11 23:04:30;;;;;;;3.42;3.13;;;;;;;16.03;100.00;100683.31;10454010;28;20049;-74
2022/07/11 23:09:32;;;;;;;4.30;3.20;;;;;;;16.04;100.00;100674.69;10460800;28;20052;-73
2022/07/11 23:14:35;;;;;;;5.50;2.70;;;;;;;16.06;100.00;100677.13;10485237;28;20420;-74
2022/07/11 23:19:37;;;;;;;4.63;2.88;;;;;;;16.09;100.00;100670.97;10474337;28;20507;-74
2022/07/11 23:24:40;;;;;;;3.35;2.75;;;;;;;16.12;100.00;100651.75;10461630;28;20626;-74
2022/07/11 23:29:43;;;;;;;4.00;2.83;;;;;;;16.16;100.00;100635.34;10477519;28;20041;-75
2022/07/11 23:34:45;;;;;;;4.47;2.80;;;;;;;16.16;100.00;100610.44;10447970;28;20047;-75